Time;durP1;ratioP1;P1;durP2;ratioP2;P2;SDS_P1;SDS_P2;PMS_P1;PMS_P2;Temp;Humidity;BMP_temperature;BMP_pressure;BME280_temperature;BME280_humidity;BME280_pressure;Samples;Min_cycle;Max_cycle;Signal;HPM_P1;HPM_P2
2022/05/09 00:01:58;;;;;;;3.95;2.05;;;;;;;10.16;59.17;95076.66;5030698;28;20200;-76
2022/05/09 00:04:26;;;;;;;4.75;2.20;;;;;;;10.08;59.52;95075.53;5030847;28;20215;-77
2022/05/09 00:06:55;;;;;;;5.13;2.20;;;;;;;9.92;60.08;95072.44;5031258;28;20224;-76
2022/05/09 00:09:23;;;;;;;3.35;2.03;;;;;;;9.99;60.39;95071.97;5030943;28;20707;-76
2022/05/09 00:11:49;;;;;;;4.53;2.30;;;;;;;9.86;60.56;95072.88;5031329;28;20211;-76
2022/05/09 00:14:16;;;;;;;7.32;2.08;;;;;;;9.81;60.42;95076.53;5030741;28;20196;-76
2022/05/09 00:16:43;;;;;;;2.03;1.70;;;;;;;9.86;60.33;95079.09;5030468;28;20200;-76
2022/05/09 00:19:13;;;;;;;4.07;2.13;;;;;;;9.73;60.40;95069.16;5031299;28;20208;-76
2022/05/09 00:21:43;;;;;;;8.90;2.40;;;;;;;9.76;60.26;95076.66;5031331;28;20296;-76
2022/05/09 00:24:14;;;;;;;5.82;2.83;;;;;;;9.86;59.68;95076.38;5030920;28;20291;-76
2022/05/09 00:26:41;;;;;;;7.10;2.10;;;;;;;9.76;60.58;95073.94;5031035;28;20224;-76
2022/05/09 00:29:09;;;;;;;3.08;1.65;;;;;;;9.73;60.34;95074.56;5030800;28;20200;-76
2022/05/09 00:31:36;;;;;;;4.22;2.00;;;;;;;9.63;60.55;95083.75;5030955;28;20291;-76
2022/05/09 00:34:03;;;;;;;2.88;1.90;;;;;;;9.61;60.82;95077.06;5030713;28;20809;-76
2022/05/09 00:36:31;;;;;;;5.50;2.15;;;;;;;9.54;61.01;95092.94;5031037;28;20278;-76
2022/05/09 00:39:01;;;;;;;3.42;2.30;;;;;;;9.51;60.57;95086.22;5031150;28;20287;-76
2022/05/09 00:41:37;;;;;;;5.78;2.50;;;;;;;9.47;60.96;95087.94;5017455;28;20208;-76
2022/05/09 00:44:09;;;;;;;4.82;2.42;;;;;;;9.51;61.11;95086.22;5040647;28;20755;-76
2022/05/09 00:46:36;;;;;;;2.72;1.83;;;;;;;9.42;61.59;95084.59;5030001;28;20211;-76
2022/05/09 00:49:10;;;;;;;4.80;2.40;;;;;;;9.34;62.08;95093.44;5031040;28;20214;-76
2022/05/09 00:51:37;;;;;;;5.93;2.35;;;;;;;9.30;62.09;95092.44;5030997;28;20200;-76
2022/05/09 00:54:06;;;;;;;2.33;1.80;;;;;;;9.31;62.88;95094.84;5030480;28;20228;-75
2022/05/09 00:56:41;;;;;;;4.20;1.63;;;;;;;9.20;63.11;95105.09;5030385;28;20579;-76
2022/05/09 00:59:13;;;;;;;3.25;2.03;;;;;;;9.07;62.91;95105.97;5030715;28;20593;-76
2022/05/09 01:01:41;;;;;;;4.97;2.30;;;;;;;9.08;63.41;95102.16;5030458;28;20193;-76
2022/05/09 01:04:12;;;;;;;6.93;2.47;;;;;;;9.14;62.64;95100.94;5030617;28;20236;-76
2022/05/09 01:06:40;;;;;;;2.63;1.60;;;;;;;9.11;63.86;95098.84;5034381;28;20220;-75
2022/05/09 01:09:11;;;;;;;4.25;1.98;;;;;;;9.08;64.10;95101.34;5014329;28;20565;-75
2022/05/09 01:11:39;;;;;;;3.55;1.98;;;;;;;9.01;65.20;95104.50;5027769;28;20776;-76
2022/05/09 01:14:10;;;;;;;4.57;1.75;;;;;;;8.97;65.63;95106.19;5033890;28;20290;-76
2022/05/09 01:16:39;;;;;;;3.90;1.85;;;;;;;8.87;65.94;95101.03;5034569;28;20188;-76
2022/05/09 01:19:22;;;;;;;4.88;1.90;;;;;;;8.72;66.17;95098.66;5045838;28;20255;-76
2022/05/09 01:21:50;;;;;;;3.13;1.77;;;;;;;8.72;66.02;95106.78;5033903;28;20586;-76
2022/05/09 01:24:20;;;;;;;5.20;2.13;;;;;;;8.76;65.91;95105.03;5033695;28;20204;-76
2022/05/09 01:26:47;;;;;;;3.50;2.20;;;;;;;8.75;66.62;95106.94;5033544;28;20215;-75
2022/05/09 01:29:19;;;;;;;3.75;1.70;;;;;;;8.76;66.05;95105.03;5033177;28;20204;-75
2022/05/09 01:31:48;;;;;;;3.33;1.92;;;;;;;8.82;65.94;95106.53;5033499;28;20196;-75
2022/05/09 01:34:17;;;;;;;3.40;1.98;;;;;;;8.88;65.78;95108.03;5033957;28;20595;-75
2022/05/09 01:36:48;;;;;;;6.57;2.33;;;;;;;8.88;65.15;95099.94;5033454;28;20205;-75
2022/05/09 01:39:17;;;;;;;3.25;2.00;;;;;;;8.96;65.17;95099.19;5033656;28;20207;-75
2022/05/09 01:41:46;;;;;;;3.03;1.98;;;;;;;8.89;65.71;95109.59;5033017;28;20200;-75
2022/05/09 01:44:15;;;;;;;2.53;1.63;;;;;;;8.82;65.79;95104.63;5042428;28;20608;-75
2022/05/09 01:49:35;;;;;;;5.22;1.92;;;;;;;8.67;66.15;95118.47;5032957;28;20207;-76
2022/05/09 01:52:04;;;;;;;4.75;2.13;;;;;;;8.67;65.84;95112.28;5033613;28;20220;-75
2022/05/09 01:54:33;;;;;;;3.65;2.25;;;;;;;8.70;65.62;95111.69;5032772;28;20208;-76
2022/05/09 01:57:01;;;;;;;2.75;1.80;;;;;;;8.66;66.29;95110.69;5032891;28;20207;-75
2022/05/09 01:59:29;;;;;;;3.88;2.15;;;;;;;8.59;67.15;95115.69;5032559;28;20583;-74
2022/05/09 02:01:59;;;;;;;7.60;2.03;;;;;;;8.66;67.40;95116.06;5032819;28;20235;-75
2022/05/09 02:04:27;;;;;;;1.90;1.65;;;;;;;8.53;67.59;95106.91;5032913;28;20192;-75
2022/05/09 02:06:54;;;;;;;6.78;1.88;;;;;;;8.49;67.69;95112.09;5033019;28;20259;-75
2022/05/09 02:09:22;;;;;;;3.08;2.00;;;;;;;8.49;68.08;95106.69;5032319;28;20201;-74
2022/05/09 02:11:50;;;;;;;3.88;1.88;;;;;;;8.38;68.80;95110.72;5032021;28;20254;-74
2022/05/09 02:14:17;;;;;;;6.45;2.38;;;;;;;8.45;68.50;95111.13;5032695;28;20228;-75
2022/05/09 02:16:44;;;;;;;3.10;2.00;;;;;;;8.41;68.41;95115.53;5031930;28;20215;-74
2022/05/09 02:19:11;;;;;;;6.40;1.95;;;;;;;8.37;68.55;95116.41;5031973;28;20203;-75
2022/05/09 02:21:38;;;;;;;3.63;1.77;;;;;;;8.37;67.53;95119.13;5032810;28;20204;-74
2022/05/09 02:24:05;;;;;;;3.05;2.25;;;;;;;8.31;68.16;95115.69;5033086;28;20316;-74
2022/05/09 02:26:32;;;;;;;5.53;2.10;;;;;;;8.33;68.27;95123.53;5032260;28;20208;-74
2022/05/09 02:29:01;;;;;;;2.42;1.70;;;;;;;8.34;68.76;95128.59;5032976;28;20602;-75
2022/05/09 02:31:28;;;;;;;7.75;2.58;;;;;;;8.30;68.50;95124.91;5032606;28;20258;-75
2022/05/09 02:33:54;;;;;;;1.98;1.52;;;;;;;8.27;68.72;95128.19;5032428;28;20602;-75
2022/05/09 02:36:21;;;;;;;3.78;2.35;;;;;;;8.21;68.70;95121.28;5027724;28;20652;-75
2022/05/09 02:38:48;;;;;;;2.72;1.80;;;;;;;8.27;67.67;95116.59;5024096;28;20208;-74
2022/05/09 02:41:15;;;;;;;9.10;2.25;;;;;;;8.35;67.21;95124.81;5032371;28;20208;-75
2022/05/09 02:43:42;;;;;;;5.03;2.60;;;;;;;8.31;68.26;95126.50;5040298;28;20247;-75
2022/05/09 02:46:11;;;;;;;3.67;2.22;;;;;;;8.23;69.12;95124.47;5033480;28;20200;-75
2022/05/09 02:48:39;;;;;;;4.55;2.28;;;;;;;8.25;69.11;95127.69;5032446;28;20309;-75
2022/05/09 02:51:08;;;;;;;3.33;1.88;;;;;;;8.21;68.58;95121.28;5031612;28;20228;-75
2022/05/09 02:53:35;;;;;;;3.05;2.00;;;;;;;8.21;69.30;95123.97;5032151;28;20287;-74
2022/05/09 02:56:03;;;;;;;5.72;2.00;;;;;;;8.12;70.11;95134.69;5032016;28;20691;-75
2022/05/09 02:58:30;;;;;;;5.88;2.33;;;;;;;8.31;70.17;95125.69;5032079;28;20200;-74
2022/05/09 03:00:56;;;;;;;5.40;1.90;;;;;;;8.29;70.13;95128.69;5031599;28;20204;-74
2022/05/09 03:06:10;;;;;;;3.78;1.92;;;;;;;8.21;70.46;95134.78;5021276;28;20318;-75
2022/05/09 03:08:37;;;;;;;4.78;2.55;;;;;;;8.23;70.02;95139.88;5031916;28;20289;-75
2022/05/09 03:11:04;;;;;;;3.60;2.35;;;;;;;8.21;70.46;95142.88;5031864;28;20587;-75
2022/05/09 03:13:31;;;;;;;4.15;2.30;;;;;;;8.24;70.19;95147.69;5031847;28;20334;-76
2022/05/09 03:16:00;;;;;;;4.40;2.47;;;;;;;8.34;69.46;95147.50;5031593;28;20692;-76
2022/05/09 03:18:28;;;;;;;4.47;2.47;;;;;;;8.35;69.96;95151.81;5045016;28;20674;-75
2022/05/09 03:20:55;;;;;;;6.03;3.67;;;;;;;8.35;69.25;95148.31;5030909;28;20200;-75
2022/05/09 03:23:22;;;;;;;6.32;2.40;;;;;;;8.50;69.44;95159.59;5031624;28;20208;-75
2022/05/09 03:25:49;;;;;;;9.93;4.72;;;;;;;8.59;68.49;95154.31;5031494;28;20200;-75
2022/05/09 03:28:20;;;;;;;15.77;5.55;;;;;;;8.74;67.72;95156.69;5030648;28;20212;-75
2022/05/09 03:30:48;;;;;;;7.00;3.42;;;;;;;8.83;67.47;95162.97;5031568;28;20204;-75
2022/05/09 03:33:15;;;;;;;18.25;6.57;;;;;;;8.87;66.53;95161.28;5030730;28;20282;-75
2022/05/09 03:35:44;;;;;;;7.28;3.70;;;;;;;9.20;66.29;95158.38;5026671;28;20246;-75
2022/05/09 03:38:11;;;;;;;5.93;3.08;;;;;;;9.33;65.51;95151.31;5024745;28;20617;-75
2022/05/09 03:40:38;;;;;;;3.78;2.33;;;;;;;9.40;64.71;95151.69;5031011;28;20200;-75
2022/05/09 03:43:06;;;;;;;6.95;2.33;;;;;;;9.82;63.97;95145.78;5030727;28;20215;-75
2022/05/09 03:45:33;;;;;;;5.72;2.13;;;;;;;10.59;62.67;95156.16;5030694;28;20228;-74
2022/05/09 03:48:00;;;;;;;2.75;1.75;;;;;;;11.48;59.70;95137.78;5028443;28;20566;-75
2022/05/09 03:50:28;;;;;;;5.60;2.63;;;;;;;12.44;57.53;95142.66;5030413;28;20307;-75
2022/05/09 03:52:57;;;;;;;7.53;2.13;;;;;;;13.47;54.24;95135.81;5029747;28;20212;-75
2022/05/09 03:55:24;;;;;;;6.88;2.65;;;;;;;14.27;51.32;95127.31;5028037;28;20254;-75
2022/05/09 03:57:52;;;;;;;3.83;1.85;;;;;;;14.71;50.17;95129.19;5030746;28;20193;-76
2022/05/09 04:00:22;;;;;;;4.30;2.13;;;;;;;15.97;47.69;95119.69;5030911;28;20200;-75
2022/05/09 04:02:49;;;;;;;3.40;1.77;;;;;;;16.10;46.25;95112.22;5029841;28;20698;-76
2022/05/09 04:05:17;;;;;;;5.97;2.42;;;;;;;16.91;45.08;95118.94;5029831;28;20295;-75
2022/05/09 04:07:45;;;;;;;5.63;2.10;;;;;;;17.10;43.47;95117.41;5030303;28;20254;-77
2022/05/09 04:10:15;;;;;;;3.65;2.00;;;;;;;17.70;43.34;95114.03;5029497;28;20193;-79
2022/05/09 04:12:41;;;;;;;4.45;2.30;;;;;;;16.97;44.52;95123.00;5030492;28;20655;-77
2022/05/09 04:17:54;;;;;;;3.90;1.98;;;;;;;18.38;40.53;95113.38;5028861;28;20686;-78
2022/05/09 04:20:22;;;;;;;6.07;2.35;;;;;;;18.88;39.28;95103.25;5027754;28;20221;-78
2022/05/09 04:22:49;;;;;;;5.18;2.95;;;;;;;19.94;37.14;95109.44;5028629;28;20220;-77
2022/05/09 04:25:19;;;;;;;9.13;2.95;;;;;;;20.37;36.46;95113.44;5030308;28;20207;-77
2022/05/09 04:27:45;;;;;;;6.95;3.20;;;;;;;20.14;36.45;95093.53;5030689;28;20202;-77
2022/05/09 04:30:13;;;;;;;5.80;3.25;;;;;;;18.81;39.52;95114.13;5030020;28;20220;-75
2022/05/09 04:32:41;;;;;;;8.27;3.35;;;;;;;17.38;42.25;95123.50;5029654;28;20215;-78
2022/05/09 04:35:11;;;;;;;7.53;3.80;;;;;;;17.48;42.76;95135.84;5029787;28;20255;-75
2022/05/09 04:37:40;;;;;;;4.55;3.20;;;;;;;17.75;42.71;95135.69;5030377;28;20204;-78
2022/05/09 04:40:08;;;;;;;4.70;3.40;;;;;;;19.75;39.20;95118.63;5032132;28;20200;-78
2022/05/09 04:42:36;;;;;;;5.65;3.45;;;;;;;20.63;36.96;95122.75;5033655;28;20664;-79
2022/05/09 04:45:03;;;;;;;4.75;2.97;;;;;;;20.96;35.90;95122.63;5044506;28;20228;-79
2022/05/09 04:47:30;;;;;;;9.20;3.25;;;;;;;21.50;35.87;95115.53;5034384;28;20734;-78
2022/05/09 04:49:57;;;;;;;7.32;3.45;;;;;;;21.35;35.18;95119.38;5033814;28;20228;-79
2022/05/09 04:52:24;;;;;;;8.20;3.70;;;;;;;22.05;34.84;95124.50;5014686;28;20241;-77
2022/05/09 04:54:51;;;;;;;7.93;3.92;;;;;;;22.10;34.88;95121.38;5014228;28;20287;-76
2022/05/09 04:57:17;;;;;;;5.43;4.03;;;;;;;22.18;34.63;95116.66;5031381;28;20213;-75
2022/05/09 04:59:48;;;;;;;6.70;4.03;;;;;;;22.88;33.65;95109.69;5034334;28;20602;-76
2022/05/09 05:02:16;;;;;;;7.82;4.30;;;;;;;23.21;32.70;95117.59;5034348;28;20235;-77
2022/05/09 05:04:43;;;;;;;9.35;4.32;;;;;;;23.02;32.90;95113.25;5034059;28;20321;-77
2022/05/09 05:07:10;;;;;;;6.78;4.13;;;;;;;23.42;32.52;95113.19;5033795;28;20215;-77
2022/05/09 05:09:37;;;;;;;5.03;3.97;;;;;;;23.14;32.49;95117.56;5034475;28;20208;-78
2022/05/09 05:12:05;;;;;;;8.05;4.15;;;;;;;24.07;31.01;95113.41;5034070;28;20780;-78
2022/05/09 05:14:32;;;;;;;8.77;4.65;;;;;;;22.83;32.28;95124.66;5034441;28;20224;-78
2022/05/09 05:17:00;;;;;;;8.40;4.18;;;;;;;23.36;32.06;95113.63;5034239;28;20196;-79
2022/05/09 05:19:28;;;;;;;6.70;4.00;;;;;;;24.32;30.58;95107.78;5033608;28;20201;-79
2022/05/09 05:21:55;;;;;;;9.13;4.28;;;;;;;24.36;30.74;95113.28;5047204;28;20228;-79
2022/05/09 05:24:22;;;;;;;11.32;4.55;;;;;;;25.03;30.22;95106.53;5033571;28;20277;-84
2022/05/09 05:26:49;;;;;;;7.03;4.50;;;;;;;24.53;30.06;95109.63;5033788;28;20612;-79
2022/05/09 05:29:15;;;;;;;9.95;4.32;;;;;;;25.64;29.68;95112.31;5034047;28;20306;-79
2022/05/09 05:31:44;;;;;;;6.82;4.00;;;;;;;26.68;28.23;95112.63;5033801;28;20250;-77
2022/05/09 05:34:12;;;;;;;7.32;4.18;;;;;;;26.65;27.26;95103.13;5033537;28;20607;-77
2022/05/09 05:36:38;;;;;;;7.47;4.40;;;;;;;26.84;27.36;95102.44;5033202;28;20533;-76
2022/05/09 05:39:07;;;;;;;5.97;3.92;;;;;;;26.40;27.44;95103.47;5033875;28;20208;-78
2022/05/09 05:41:35;;;;;;;6.20;4.35;;;;;;;25.12;28.84;95098.53;5033665;28;20227;-78
2022/05/09 05:44:02;;;;;;;6.75;4.55;;;;;;;26.11;28.37;95103.03;5043747;28;20227;-77
2022/05/09 05:46:30;;;;;;;9.93;4.07;;;;;;;27.03;27.18;95111.31;5033795;28;20223;-78
2022/05/09 05:48:56;;;;;;;9.43;3.65;;;;;;;25.15;28.46;95108.78;5033245;28;20391;-77
2022/05/09 05:51:24;;;;;;;6.38;3.55;;;;;;;24.41;30.03;95118.41;5032462;28;20224;-78
2022/05/09 05:53:51;;;;;;;7.75;3.58;;;;;;;23.68;31.59;95118.28;5033375;28;20228;-77
2022/05/09 05:56:18;;;;;;;7.75;3.85;;;;;;;24.97;29.59;95113.72;5032678;28;20270;-78
2022/05/09 05:58:45;;;;;;;7.50;3.40;;;;;;;24.61;29.86;95122.25;5033502;28;20200;-76
2022/05/09 06:01:12;;;;;;;4.55;3.38;;;;;;;23.96;31.48;95123.72;5033080;28;20221;-77
2022/05/09 06:03:39;;;;;;;6.60;3.25;;;;;;;23.86;30.91;95123.78;5033299;28;20208;-78
2022/05/09 06:06:06;;;;;;;7.05;3.35;;;;;;;23.90;30.72;95119.03;5033157;28;20744;-77
2022/05/09 06:08:38;;;;;;;6.20;3.42;;;;;;;25.19;29.95;95120.66;5048663;28;20218;-77
2022/05/09 06:11:05;;;;;;;5.75;2.97;;;;;;;25.56;28.76;95121.91;5053227;28;20405;-77
2022/05/09 06:13:32;;;;;;;5.53;3.30;;;;;;;25.99;28.76;95120.25;5036059;28;20667;-77
2022/05/09 06:15:59;;;;;;;5.28;2.70;;;;;;;27.24;27.06;95105.41;5032979;28;20214;-78
2022/05/09 06:18:26;;;;;;;7.30;3.92;;;;;;;25.96;28.02;95107.22;5033238;28;20250;-78
2022/05/09 06:20:53;;;;;;;6.18;3.42;;;;;;;24.58;30.40;95117.53;5032701;28;20233;-79
2022/05/09 06:23:21;;;;;;;5.72;3.33;;;;;;;25.84;28.53;95122.41;5032678;28;20208;-78
2022/05/09 06:25:50;;;;;;;7.00;3.40;;;;;;;26.20;28.97;95117.22;5032664;28;20254;-78
2022/05/09 06:28:18;;;;;;;7.68;3.60;;;;;;;26.12;28.80;95132.38;5032525;28;20256;-78
2022/05/09 06:30:45;;;;;;;5.68;3.50;;;;;;;26.29;28.38;95118.72;5032800;28;20197;-78
2022/05/09 06:33:12;;;;;;;7.93;3.70;;;;;;;27.30;26.64;95109.28;5032585;28;20212;-78
2022/05/09 06:35:43;;;;;;;8.55;3.67;;;;;;;27.66;26.51;95106.66;5032476;28;20723;-78
2022/05/09 06:38:14;;;;;;;6.07;3.17;;;;;;;26.62;27.50;95112.31;5019465;28;20208;-77
2022/05/09 06:40:42;;;;;;;4.45;3.00;;;;;;;26.54;28.26;95119.97;5032504;28;20232;-78
2022/05/09 06:43:10;;;;;;;4.57;3.40;;;;;;;25.83;28.55;95117.28;5023285;28;20192;-78
2022/05/09 06:45:37;;;;;;;5.10;3.20;;;;;;;25.63;28.65;95124.63;5038332;28;20236;-78
2022/05/09 06:48:05;;;;;;;6.25;3.42;;;;;;;24.42;30.78;95122.75;5032570;28;20232;-78
2022/05/09 06:50:35;;;;;;;9.20;3.85;;;;;;;26.47;28.55;95103.41;5031653;28;20315;-77
2022/05/09 06:53:04;;;;;;;4.15;3.15;;;;;;;27.75;26.62;95106.09;5032126;28;20201;-78
2022/05/09 06:55:31;;;;;;;5.90;3.25;;;;;;;26.30;28.17;95117.53;5032031;28;20212;-77
2022/05/09 06:57:58;;;;;;;4.97;3.17;;;;;;;26.00;29.04;95118.25;5031525;28;20204;-77
2022/05/09 07:00:27;;;;;;;7.30;3.80;;;;;;;26.33;29.30;95113.91;5031937;28;20224;-76
2022/05/09 07:02:54;;;;;;;5.75;3.47;;;;;;;24.74;30.82;95117.78;5032224;28;20403;-78
2022/05/09 07:05:22;;;;;;;5.55;3.40;;;;;;;24.80;31.07;95109.84;5032448;28;20266;-78
2022/05/09 07:07:49;;;;;;;9.35;3.60;;;;;;;25.96;29.24;95107.22;5032230;28;20614;-78
2022/05/09 07:10:18;;;;;;;5.88;3.70;;;;;;;25.95;29.00;95111.19;5031782;28;20560;-78
2022/05/09 07:12:47;;;;;;;6.55;3.10;;;;;;;27.06;28.57;95099.38;5032031;28;20269;-79
2022/05/09 07:15:16;;;;;;;8.30;3.33;;;;;;;26.15;28.72;95112.13;5031924;28;20228;-77
2022/05/09 07:17:45;;;;;;;6.18;2.75;;;;;;;25.98;28.72;95110.34;5032025;28;20278;-77
2022/05/09 07:20:13;;;;;;;5.88;3.40;;;;;;;27.13;27.18;95099.22;5031921;28;20224;-78
2022/05/09 07:22:40;;;;;;;5.88;3.47;;;;;;;26.74;27.65;95106.19;5031560;28;20664;-77
2022/05/09 07:25:08;;;;;;;4.18;3.38;;;;;;;26.06;28.96;95111.06;5031492;28;20204;-79
2022/05/09 07:27:36;;;;;;;3.97;2.88;;;;;;;26.39;28.92;95117.78;5031539;28;20235;-78
2022/05/09 07:30:03;;;;;;;8.27;3.53;;;;;;;26.55;28.98;95104.06;5037028;28;20214;-77
2022/05/09 07:32:30;;;;;;;6.10;3.28;;;;;;;26.80;27.63;95104.47;5038808;28;20204;-76
2022/05/09 07:34:58;;;;;;;6.85;3.20;;;;;;;26.17;28.43;95106.16;5037615;28;20270;-76
2022/05/09 07:37:25;;;;;;;4.65;2.65;;;;;;;25.83;28.60;95108.94;5037891;28;20203;-77
2022/05/09 07:39:52;;;;;;;5.53;3.22;;;;;;;25.44;30.82;95107.31;5031530;28;20572;-76
2022/05/09 07:42:19;;;;;;;4.57;3.08;;;;;;;24.80;30.28;95109.84;5031142;28;20660;-78
2022/05/09 07:44:46;;;;;;;7.45;3.03;;;;;;;24.94;29.04;95108.97;5041418;28;20227;-77
2022/05/09 07:47:12;;;;;;;3.33;2.47;;;;;;;25.42;28.84;95109.72;5031129;28;20576;-78
2022/05/09 07:49:39;;;;;;;5.22;2.83;;;;;;;24.68;29.77;95108.34;5031109;28;20227;-77
2022/05/09 07:52:09;;;;;;;2.83;2.50;;;;;;;24.51;29.32;95103.72;5031329;28;20709;-75
2022/05/09 07:54:36;;;;;;;3.03;2.30;;;;;;;25.44;28.72;95104.56;5031117;28;20255;-77
2022/05/09 07:57:02;;;;;;;6.72;3.15;;;;;;;25.10;29.92;95106.47;5030916;28;20196;-78
2022/05/09 07:59:29;;;;;;;7.07;2.70;;;;;;;25.66;28.60;95104.38;5031070;28;20220;-77
2022/05/09 08:01:56;;;;;;;5.20;2.30;;;;;;;24.38;29.95;95106.16;5031729;28;20579;-76
2022/05/09 08:04:24;;;;;;;4.57;2.58;;;;;;;24.10;30.20;95118.13;5050727;28;20203;-78
2022/05/09 08:06:51;;;;;;;5.82;2.70;;;;;;;23.54;31.14;95116.34;5049254;28;20206;-77
2022/05/09 08:09:19;;;;;;;4.38;2.38;;;;;;;23.32;31.31;95112.03;5031225;28;20200;-77
2022/05/09 08:11:46;;;;;;;3.95;2.42;;;;;;;22.65;32.22;95119.13;5031074;28;20208;-76
2022/05/09 08:14:13;;;;;;;4.60;2.38;;;;;;;21.91;32.73;95125.19;5032051;28;20250;-76
2022/05/09 08:16:40;;;;;;;5.18;2.60;;;;;;;22.30;32.37;95124.56;5039424;28;20208;-78
2022/05/09 08:19:07;;;;;;;2.60;1.88;;;;;;;22.35;32.49;95118.66;5048387;28;20622;-77
2022/05/09 08:21:36;;;;;;;5.13;2.47;;;;;;;22.23;32.67;95121.78;5037666;28;20609;-78
2022/05/09 08:24:03;;;;;;;3.00;2.25;;;;;;;22.43;33.19;95120.25;5037707;28;20200;-76
2022/05/09 08:26:31;;;;;;;7.22;2.83;;;;;;;22.74;31.98;95120.69;5037420;28;20243;-77
2022/05/09 08:28:58;;;;;;;4.07;2.17;;;;;;;22.32;32.26;95120.22;5037204;28;20292;-77
2022/05/09 08:31:25;;;;;;;3.25;2.08;;;;;;;22.21;33.05;95122.19;5037082;28;20207;-76
2022/05/09 08:33:53;;;;;;;5.55;2.65;;;;;;;21.68;32.74;95116.44;5037200;28;20219;-79
2022/05/09 08:39:02;;;;;;;5.72;2.30;;;;;;;22.85;31.69;95116.78;5030362;28;20258;-77
2022/05/09 08:41:36;;;;;;;4.03;2.60;;;;;;;23.54;31.14;95113.59;5030602;28;20286;-77
2022/05/09 08:44:19;;;;;;;3.83;2.42;;;;;;;24.44;29.97;95109.31;5056987;28;20230;-78
2022/05/09 08:46:58;;;;;;;5.18;2.33;;;;;;;24.56;30.19;95106.06;5046514;28;20656;-78
2022/05/09 08:49:46;;;;;;;5.57;2.47;;;;;;;24.38;31.91;95108.13;5037074;28;20243;-77
2022/05/09 08:52:20;;;;;;;4.63;2.50;;;;;;;24.27;31.34;95099.91;5037170;28;20644;-79
2022/05/09 08:54:47;;;;;;;4.53;2.70;;;;;;;22.96;32.22;95106.53;5046828;28;20318;-75
2022/05/09 08:57:20;;;;;;;5.40;2.42;;;;;;;22.40;33.22;95110.00;5054290;28;20254;-79
2022/05/09 08:59:54;;;;;;;6.03;2.38;;;;;;;22.77;32.87;95103.38;5036362;28;20247;-76
2022/05/09 09:02:28;;;;;;;3.63;2.55;;;;;;;22.85;32.31;95107.69;5036507;28;20211;-78
2022/05/09 09:04:58;;;;;;;3.72;2.58;;;;;;;23.02;31.29;95104.16;5037231;28;20203;-76
2022/05/09 09:07:50;;;;;;;6.78;2.80;;;;;;;23.02;31.49;95109.69;5037259;28;20334;-76
2022/05/09 09:10:29;;;;;;;4.03;2.03;;;;;;;22.70;31.46;95110.44;5037238;28;20249;-76
2022/05/09 09:13:14;;;;;;;4.43;2.28;;;;;;;22.13;31.35;95114.28;5037098;28;20200;-78
2022/05/09 09:15:49;;;;;;;3.45;2.00;;;;;;;22.23;29.05;95111.53;5024997;28;20227;-74
2022/05/09 09:18:36;;;;;;;2.88;1.73;;;;;;;23.21;27.58;95095.47;5036985;28;20211;-77
2022/05/09 09:21:08;;;;;;;3.92;2.10;;;;;;;23.19;28.39;95103.38;5048741;28;20199;-74
2022/05/09 09:23:51;;;;;;;3.30;2.30;;;;;;;23.52;30.07;95088.31;5037802;28;20193;-77
2022/05/09 09:26:28;;;;;;;5.57;2.70;;;;;;;24.02;28.79;95083.38;5035297;28;20238;-75
2022/05/09 09:29:03;;;;;;;3.35;2.20;;;;;;;22.98;29.85;95092.31;5034192;28;20203;-79
2022/05/09 09:31:32;;;;;;;3.42;2.05;;;;;;;22.92;31.06;95091.94;5033353;28;20254;-78
2022/05/09 09:34:07;;;;;;;6.10;2.30;;;;;;;23.00;28.60;95084.41;5033218;28;20220;-80
2022/05/09 09:36:42;;;;;;;3.50;1.67;;;;;;;22.56;25.61;95082.78;5027255;28;20224;-77
2022/05/09 09:39:16;;;;;;;3.00;1.98;;;;;;;22.02;30.00;95096.88;5028273;28;20210;-80
2022/05/09 09:41:44;;;;;;;4.88;1.70;;;;;;;22.22;28.86;95084.34;5033879;28;20215;-78
2022/05/09 09:44:14;;;;;;;6.40;1.90;;;;;;;22.02;29.45;95096.88;5043725;28;20319;-80
2022/05/09 09:47:04;;;;;;;3.00;2.00;;;;;;;22.29;28.79;95084.34;5033356;28;20228;-76
2022/05/09 09:49:32;;;;;;;3.92;2.05;;;;;;;22.67;27.79;95082.81;5033657;28;20236;-79
2022/05/09 09:51:59;;;;;;;6.05;1.80;;;;;;;22.54;27.74;95089.91;5033613;28;20231;-79
2022/05/09 09:54:29;;;;;;;4.53;2.00;;;;;;;22.36;28.53;95073.31;5046579;28;20660;-77
2022/05/09 09:56:56;;;;;;;5.28;2.05;;;;;;;23.15;27.85;95074.94;5033381;28;20243;-76
2022/05/09 09:59:30;;;;;;;3.15;1.80;;;;;;;23.68;27.36;95077.59;5033299;28;20250;-78
2022/05/09 10:02:08;;;;;;;2.53;1.67;;;;;;;23.56;26.25;95074.47;5032729;28;20196;-79
2022/05/09 10:04:35;;;;;;;2.58;1.30;;;;;;;23.51;26.23;95078.41;5033138;28;20739;-77
2022/05/09 10:07:05;;;;;;;4.57;1.73;;;;;;;22.51;26.57;95091.50;5032840;28;20213;-77
2022/05/09 10:09:38;;;;;;;2.38;1.85;;;;;;;21.59;27.85;95107.72;5033641;28;20211;-68
2022/05/09 10:12:17;;;;;;;4.40;1.40;;;;;;;21.53;30.20;95081.69;5032833;28;20211;-75
2022/05/09 10:14:46;;;;;;;4.13;1.60;;;;;;;21.15;29.54;95083.81;5032895;28;20235;-75
2022/05/09 10:17:16;;;;;;;3.17;1.40;;;;;;;21.56;27.86;95076.19;5019864;28;20204;-76
2022/05/09 10:19:44;;;;;;;3.15;1.58;;;;;;;22.28;27.90;95074.47;5032788;28;20233;-77
2022/05/09 10:25:06;;;;;;;2.75;1.40;;;;;;;22.38;27.30;95079.25;5035408;28;20195;-79
2022/05/09 10:27:33;;;;;;;2.13;1.40;;;;;;;21.90;27.17;95079.47;5032976;28;20195;-76
2022/05/09 10:30:05;;;;;;;3.78;1.63;;;;;;;21.96;27.73;95077.94;5032794;28;20209;-79
2022/05/09 10:32:42;;;;;;;2.25;1.60;;;;;;;22.45;25.62;95061.88;5031894;28;20201;-76
2022/05/09 10:35:16;;;;;;;5.82;1.73;;;;;;;22.94;26.23;95069.44;5013059;28;20224;-77
2022/05/09 10:37:48;;;;;;;1.20;1.10;;;;;;;22.18;24.14;95078.00;5027565;28;20262;-79
2022/05/09 10:40:22;;;;;;;3.75;1.77;;;;;;;22.32;26.88;95061.47;5032580;28;20667;-78
2022/05/09 10:42:55;;;;;;;3.50;1.70;;;;;;;23.17;26.15;95067.03;5033314;28;20220;-77
2022/05/09 10:45:25;;;;;;;1.92;1.40;;;;;;;23.91;24.45;95060.50;5040226;28;20715;-77
2022/05/09 10:48:00;;;;;;;40.53;4.35;;;;;;;24.36;26.22;95057.91;5032209;28;20231;-78
2022/05/09 10:50:33;;;;;;;4.93;1.40;;;;;;;24.47;23.89;95052.28;5032729;28;20187;-77
2022/05/09 10:53:10;;;;;;;1.63;1.25;;;;;;;23.70;23.01;95049.53;5031994;28;20196;-73
2022/05/09 10:55:40;;;;;;;5.78;1.38;;;;;;;22.95;24.10;95059.97;5032155;28;20228;-76
2022/05/09 10:58:12;;;;;;;2.00;1.20;;;;;;;23.63;21.31;95049.56;5032427;28;20235;-77
2022/05/09 11:00:48;;;;;;;1.52;1.10;;;;;;;24.43;21.85;95046.78;5031994;28;20200;-78
2022/05/09 11:03:24;;;;;;;4.47;1.65;;;;;;;23.51;23.16;95059.06;5030943;28;20204;-76
2022/05/09 11:06:13;;;;;;;3.55;1.70;;;;;;;23.62;24.59;95047.97;5018838;28;20207;-77
2022/05/09 11:08:57;;;;;;;3.67;1.65;;;;;;;24.43;23.34;95042.03;5031416;28;20259;-76
2022/05/09 11:11:34;;;;;;;5.00;1.40;;;;;;;24.17;22.72;95034.28;5031918;28;20207;-78
2022/05/09 11:14:13;;;;;;;2.08;1.40;;;;;;;23.76;22.66;95036.06;5012360;28;20251;-77
2022/05/09 11:16:58;;;;;;;2.45;1.42;;;;;;;23.26;23.09;95050.03;5027941;28;20224;-78
2022/05/09 11:19:43;;;;;;;3.63;1.67;;;;;;;23.31;23.76;95039.34;5031766;28;20192;-77
2022/05/09 11:22:18;;;;;;;3.72;1.52;;;;;;;23.59;22.87;95032.97;5019920;28;20216;-76
2022/05/09 11:24:59;;;;;;;3.88;1.35;;;;;;;23.71;22.10;95029.75;5031974;28;20767;-79
2022/05/09 11:27:45;;;;;;;2.97;1.17;;;;;;;23.22;23.62;95036.22;5032190;28;20246;-77
2022/05/09 11:30:26;;;;;;;1.50;1.30;;;;;;;22.87;24.32;95036.25;5019713;28;20227;-77
2022/05/09 11:33:19;;;;;;;2.10;1.13;;;;;;;23.11;22.80;95018.84;5031213;28;20196;-76
2022/05/09 11:35:50;;;;;;;2.58;1.20;;;;;;;23.53;23.50;95020.72;5023466;28;20259;-75
2022/05/09 11:38:43;;;;;;;3.13;1.60;;;;;;;22.76;22.10;95024.41;5028304;28;20203;-79
2022/05/09 11:41:26;;;;;;;2.03;1.23;;;;;;;23.15;23.27;95019.63;5026133;28;20193;-77
2022/05/09 11:44:12;;;;;;;3.30;1.10;;;;;;;23.77;23.25;95018.28;5020965;28;20278;-72
2022/05/09 11:47:15;;;;;;;1.83;1.02;;;;;;;23.18;23.09;95018.06;5031311;28;20196;-76
2022/05/09 11:50:05;;;;;;;1.15;0.90;;;;;;;22.88;22.58;95022.06;5018358;28;20196;-76
2022/05/09 11:52:39;;;;;;;2.90;1.33;;;;;;;22.83;23.15;95014.16;5031031;28;20598;-80
2022/05/09 11:55:09;;;;;;;1.67;1.20;;;;;;;22.62;23.13;95023.25;5031450;28;20279;-75
2022/05/09 11:57:40;;;;;;;3.15;1.25;;;;;;;22.71;22.56;95006.25;5031087;28;20245;-74
2022/05/09 12:00:11;;;;;;;4.13;1.20;;;;;;;22.75;21.98;95012.56;5031309;28;20278;-77
2022/05/09 12:02:47;;;;;;;3.60;1.38;;;;;;;22.85;22.43;95019.28;5018435;28;20200;-75
2022/05/09 12:05:49;;;;;;;2.38;1.45;;;;;;;23.28;22.12;95001.44;5030830;28;20211;-76